createdAt,value
2019-06-08T00:05:26.763Z,15.40
2019-06-08T00:10:56.105Z,15.40
2019-06-08T00:16:25.380Z,15.30
2019-06-08T00:21:54.670Z,15.40
2019-06-08T00:27:24.634Z,15.40
2019-06-08T00:32:53.889Z,15.40
2019-06-08T00:38:23.157Z,15.50
2019-06-08T00:43:52.436Z,15.50
2019-06-08T00:49:22.692Z,15.50
2019-06-08T00:54:52.091Z,15.50
2019-06-08T01:00:22.532Z,15.50
2019-06-08T01:05:51.869Z,15.50
2019-06-08T01:11:22.451Z,15.50
2019-06-08T01:16:51.874Z,15.50
2019-06-08T01:22:21.567Z,15.50
2019-06-08T01:27:50.904Z,15.50
2019-06-08T01:33:20.460Z,15.40
2019-06-08T01:38:49.838Z,15.40
2019-06-08T01:44:19.098Z,15.40
2019-06-08T01:49:48.457Z,15.50
2019-06-08T01:55:17.739Z,15.60
2019-06-08T02:00:47.115Z,15.60
2019-06-08T02:06:16.424Z,15.60
2019-06-08T02:11:45.668Z,15.60
2019-06-08T02:17:14.961Z,15.60
2019-06-08T02:22:44.310Z,15.60
2019-06-08T02:28:13.639Z,15.60
2019-06-08T02:33:42.918Z,15.60
2019-06-08T02:39:12.190Z,15.60
2019-06-08T02:44:41.481Z,15.60
2019-06-08T02:50:11.370Z,15.50
2019-06-08T02:55:41.608Z,15.50
2019-06-08T03:01:11.283Z,15.50
2019-06-08T03:06:44.218Z,15.40
2019-06-08T03:12:13.717Z,15.40
2019-06-08T03:17:43.023Z,15.30
2019-06-08T03:23:12.293Z,15.30
2019-06-08T03:28:44.072Z,15.30
2019-06-08T03:34:12.595Z,15.30
2019-06-08T03:39:43.124Z,15.30
2019-06-08T03:45:12.920Z,15.20
2019-06-08T03:50:44.492Z,15.20
2019-06-08T03:56:13.215Z,15.20
2019-06-08T04:01:43.910Z,15.20
2019-06-08T04:07:13.498Z,15.10
2019-06-08T04:12:44.282Z,15.20
2019-06-08T04:18:13.800Z,15.10
2019-06-08T04:23:44.903Z,15.10
2019-06-08T04:29:14.071Z,15.10
2019-06-08T04:34:45.369Z,15.00
2019-06-08T04:40:15.559Z,15.00
2019-06-08T04:45:45.866Z,15.00
2019-06-08T04:51:15.811Z,15.00
2019-06-08T04:56:46.951Z,15.00
2019-06-08T05:02:16.094Z,15.00
2019-06-08T05:07:46.086Z,15.00
2019-06-08T05:13:16.395Z,15.00
2019-06-08T05:18:45.680Z,15.00
2019-06-08T05:24:14.952Z,15.00
2019-06-08T05:29:45.385Z,15.00
2019-06-08T05:35:15.227Z,15.00
2019-06-08T05:40:45.556Z,15.00
2019-06-08T05:46:14.881Z,15.10
2019-06-08T05:51:44.154Z,15.10
2019-06-08T05:57:13.422Z,15.10
2019-06-08T06:02:42.700Z,15.10
2019-06-08T06:08:18.889Z,15.10
2019-06-08T06:13:43.058Z,15.20
2019-06-08T06:19:12.438Z,15.20
2019-06-08T06:24:43.657Z,15.30
2019-06-08T06:30:13.762Z,15.30
2019-06-08T06:35:43.840Z,15.30
2019-06-08T06:41:13.066Z,15.40
2019-06-08T06:46:42.346Z,15.40
2019-06-08T06:52:11.637Z,15.50
2019-06-08T06:57:41.287Z,15.60
2019-06-08T07:03:10.568Z,15.70
2019-06-08T07:08:41.991Z,15.70
2019-06-08T07:14:10.852Z,15.70
2019-06-08T07:19:40.127Z,15.70
2019-06-08T07:25:09.687Z,15.70
2019-06-08T07:30:39.012Z,15.80
2019-06-08T07:36:10.007Z,15.80
2019-06-08T07:41:39.286Z,15.80
2019-06-08T07:47:08.566Z,15.90
2019-06-08T07:52:37.918Z,15.90
2019-06-08T07:58:07.462Z,16.20
2019-06-08T08:03:36.730Z,16.30
2019-06-08T08:09:07.932Z,16.30
2019-06-08T08:14:37.253Z,16.40
2019-06-08T08:20:07.951Z,16.40
2019-06-08T08:25:37.916Z,16.30
2019-06-08T08:31:07.809Z,16.30
2019-06-08T08:36:38.245Z,16.50
2019-06-08T08:42:08.499Z,16.40
2019-06-08T08:47:38.695Z,16.60
2019-06-08T08:53:08.454Z,16.70
2019-06-08T08:58:38.133Z,16.80
2019-06-08T09:04:08.862Z,16.90
2019-06-08T09:09:38.812Z,17.00
2019-06-08T09:15:08.740Z,17.10
2019-06-08T09:20:38.164Z,17.10
2019-06-08T09:26:12.396Z,17.00
2019-06-08T09:31:39.224Z,17.10
2019-06-08T09:37:08.819Z,17.20
2019-06-08T09:42:38.106Z,17.20
2019-06-08T09:48:09.282Z,17.20
2019-06-08T09:53:41.408Z,17.40
2019-06-08T09:59:11.057Z,17.60
2019-06-08T10:04:40.553Z,18.00
2019-06-08T10:10:10.963Z,18.20
2019-06-08T10:15:40.250Z,18.40
2019-06-08T10:21:09.742Z,18.70
2019-06-08T10:26:39.244Z,18.70
2019-06-08T10:32:10.175Z,18.70
2019-06-08T10:37:39.483Z,18.80
2019-06-08T10:43:09.922Z,18.80
2019-06-08T10:48:39.748Z,18.90
2019-06-08T10:54:11.063Z,19.00
2019-06-08T10:59:40.438Z,19.10
2019-06-08T11:05:13.900Z,19.20
2019-06-08T11:10:41.428Z,19.40
2019-06-08T11:16:13.363Z,19.70
2019-06-08T11:21:41.731Z,19.70
2019-06-08T11:27:12.880Z,19.80
2019-06-08T11:32:41.995Z,19.90
2019-06-08T11:38:12.647Z,20.10
2019-06-08T11:43:42.053Z,20.20
2019-06-08T11:49:14.738Z,20.40
2019-06-08T11:54:42.302Z,20.80
2019-06-08T12:00:25.204Z,20.90
2019-06-08T12:05:48.256Z,20.90
2019-06-08T12:11:20.868Z,20.90
2019-06-08T12:16:49.358Z,21.20
2019-06-08T12:22:21.654Z,21.50
2019-06-08T12:27:52.629Z,21.50
2019-06-08T12:33:22.778Z,21.80
2019-06-08T12:38:51.696Z,22.40
2019-06-08T12:44:22.203Z,22.40
2019-06-08T12:49:51.743Z,22.00
2019-06-08T12:55:24.876Z,21.90
2019-06-08T13:00:52.772Z,22.10
2019-06-08T13:06:22.047Z,22.00
2019-06-08T13:11:51.332Z,22.10
2019-06-08T13:17:21.331Z,22.40
2019-06-08T13:22:50.832Z,22.70
2019-06-08T13:28:24.990Z,22.60
2019-06-08T13:33:52.546Z,22.60
2019-06-08T13:39:23.078Z,23.00
2019-06-08T13:44:52.680Z,23.20
2019-06-08T13:50:23.884Z,23.40
2019-06-08T13:55:56.744Z,23.40
2019-06-08T14:01:24.346Z,23.30
2019-06-08T14:06:53.642Z,23.50
2019-06-08T14:12:24.305Z,23.50
2019-06-08T14:17:53.905Z,23.60
2019-06-08T14:23:24.535Z,23.70
2019-06-08T14:28:54.187Z,23.80
2019-06-08T14:34:24.775Z,23.90
2019-06-08T14:39:54.413Z,24.00
2019-06-08T14:45:24.708Z,24.10
2019-06-08T14:50:54.003Z,24.10
2019-06-08T14:56:23.275Z,25.40
2019-06-08T15:01:52.555Z,29.90
2019-06-08T15:07:23.311Z,28.70
2019-06-08T15:12:53.724Z,26.50
2019-06-08T15:18:23.873Z,25.20
2019-06-08T15:23:53.138Z,24.70
2019-06-08T15:29:22.891Z,24.30
2019-06-08T15:34:52.142Z,24.20
2019-06-08T15:40:21.561Z,24.10
2019-06-08T15:45:51.427Z,23.50
2019-06-08T15:51:22.076Z,23.20
2019-06-08T15:56:52.330Z,22.90
2019-06-08T16:02:22.988Z,22.90
2019-06-08T16:07:52.505Z,23.10
2019-06-08T16:13:21.779Z,23.00
2019-06-08T16:18:51.129Z,22.80
2019-06-08T16:24:20.399Z,22.70
2019-06-08T16:29:49.672Z,22.60
2019-06-08T16:35:18.954Z,22.40
2019-06-08T16:40:48.237Z,22.40
2019-06-08T16:46:17.524Z,22.40
2019-06-08T16:51:46.796Z,22.30
2019-06-08T16:57:16.066Z,22.30
2019-06-08T17:02:45.370Z,22.20
2019-06-08T17:08:14.646Z,22.30
2019-06-08T17:13:43.924Z,22.10
2019-06-08T17:19:13.269Z,22.00
2019-06-08T17:24:42.486Z,21.80
2019-06-08T17:30:11.994Z,21.70
2019-06-08T17:35:42.341Z,21.50
2019-06-08T17:41:11.721Z,21.30
2019-06-08T17:46:41.398Z,21.20
2019-06-08T17:52:12.022Z,21.00
2019-06-08T17:57:48.312Z,20.90
2019-06-08T18:03:12.365Z,20.70
2019-06-08T18:08:43.617Z,20.60
2019-06-08T18:14:12.644Z,20.50
2019-06-08T18:19:45.038Z,20.30
2019-06-08T18:25:13.598Z,20.20
2019-06-08T18:30:44.688Z,20.10
2019-06-08T18:36:17.416Z,19.90
2019-06-08T18:41:48.395Z,19.80
2019-06-08T18:47:17.861Z,19.70
2019-06-08T18:52:49.439Z,19.60
2019-06-08T18:58:24.828Z,19.50
2019-06-08T19:03:52.079Z,19.40
2019-06-08T19:09:20.925Z,19.20
2019-06-08T19:14:52.317Z,19.10
2019-06-08T19:20:21.499Z,19.00
2019-06-08T19:25:50.886Z,18.80
2019-06-08T19:31:20.447Z,18.70
2019-06-08T19:36:54.221Z,18.60
2019-06-08T19:42:35.262Z,18.40
2019-06-08T19:47:51.740Z,18.30
2019-06-08T19:53:21.025Z,18.20
2019-06-08T19:59:00.331Z,18.00
2019-06-08T20:04:21.298Z,17.90
2019-06-08T20:09:50.828Z,17.70
2019-06-08T20:15:20.772Z,17.60
2019-06-08T20:20:52.692Z,17.50
2019-06-08T20:26:21.067Z,17.30
2019-06-08T20:31:51.525Z,17.20
2019-06-08T20:37:20.989Z,17.00
2019-06-08T20:42:53.298Z,16.90
2019-06-08T20:48:21.249Z,16.80
2019-06-08T20:53:51.886Z,16.70
2019-06-08T20:59:29.859Z,16.50
2019-06-08T21:04:54.587Z,16.40
2019-06-08T21:10:24.532Z,16.20
2019-06-08T21:15:57.136Z,16.10
2019-06-08T21:21:24.831Z,16.00
2019-06-08T21:26:56.517Z,15.80
2019-06-08T21:32:27.683Z,15.70
2019-06-08T21:37:59.677Z,15.60
2019-06-08T21:43:28.074Z,15.50
2019-06-08T21:49:00.141Z,15.30
2019-06-08T21:54:28.432Z,15.20
2019-06-08T22:00:16.273Z,15.10
2019-06-08T22:05:29.488Z,15.00
2019-06-08T22:10:59.418Z,14.90
2019-06-08T22:16:29.908Z,14.90
2019-06-08T22:22:01.450Z,14.80
2019-06-08T22:27:30.174Z,14.80
2019-06-08T22:32:59.869Z,14.70
2019-06-08T22:38:29.210Z,14.70
2019-06-08T22:44:00.735Z,14.70
2019-06-08T22:49:29.492Z,14.60
2019-06-08T22:55:04.047Z,14.50
2019-06-08T23:00:29.799Z,14.50
2019-06-08T23:06:00.150Z,14.50
2019-06-08T23:11:30.074Z,14.40
2019-06-08T23:17:01.097Z,14.40
2019-06-08T23:22:30.360Z,14.40
2019-06-08T23:28:00.206Z,14.30
2019-06-08T23:33:29.483Z,14.30
2019-06-08T23:38:59.143Z,14.30
2019-06-08T23:44:28.467Z,14.30
2019-06-08T23:49:59.385Z,14.30
2019-06-08T23:55:28.694Z,14.30
